Montreal/Pierre Elliott Trudea, Quebec

6:37 AM EDT on 三月 27, 2017 (GMT -0400)
Montreal International (Dorval) | | Change Station
発令中の注意報: Special Weather Statement

高度 118 ft 45.47 °N, 73.75 °W | Updated 27 minutes ago

Light Rain
小雨
36 °F
体感気温 30 °F
7
風 変数 風 から

今日
高い -- | 低 -- °F
--% 降水確率
昨日
高い -- | 低 -- °F
Precip. -- インチ
気圧 30.06 インチ
視程 12.0 マイル
わずか 800 ft
曇 1200 ft
体感気温(寒さ) 30 °F
露点温度 32 °F
湿度 87%
降水 0.00 インチ
積雪深 利用不可。
6:44 AM 7:16 PM
二十六夜, 1% visible
SPECI CYUL 271010Z 09006KT 12SM -RA FEW008 OVC012 02/00 A3005 RMK SF2SC6 SLP177
気圧 30.06 インチ
視程 12.0 マイル
わずか 800 ft
曇 1200 ft
体感気温(寒さ) 30 °F
露点温度 32 °F
湿度 87%
降水 0.00 インチ
積雪深 利用不可。
6:44 AM 7:16 PM
二十六夜, 1% visible
SPECI CYUL 271010Z 09006KT 12SM -RA FEW008 OVC012 02/00 A3005 RMK SF2SC6 SLP177

Get Severe Weather Alerts

Thanks for signing up!

Be on the lookout for a verification email in your inbox.

You'll start receiving the daily forecast at 8 AM.

×

10-Day Weather Forecast

Almanac

天文

Mar. 27, 2017 入り
実時間
常用薄明
航海薄明
天文薄明
可視光の長さ
可照時間
Tomorrow will be .
, % of the Moon is Illuminated

今日の極値

Country Highs Country Lows

Community

WunderPhotos

Upload Photos

1,962,540 写真がアップロードされました!

WunderBlog® & News

Nearby

空気品質

  空気品質 大気質指数 汚染物質
Not available.

積雪深

Station Depth 高度

地震活動

Distance Mag. Time & Date
Minimum magnitude displayed is 2.5.

地震活動

Distance Mag. Time & Date
Minimum magnitude displayed is 2.5.

沿岸の水温

地名 気温

Stations

最寄りの気象観測所

観測所位置 温度 体感気温(寒さ) 露点温度 湿度 Precip. 高度 更新日時 タイプする
                   

Watches & Warnings

Special Weather Statement
Issued: Environment Canada
Special Weather Statement issued by Environment.  06:18 PM EDT Sunday 26 March 2017.
2 to 10 millimetres of freezing rain is expected by Monday evening.

A weather system from the U.S. midwest will affect Quebec until Monday evening. An area of freezing rain associated with its warm front will affect Southern Quebec tonight and will reach the Quebec City region on Monday morning.

###

Surfaces such as highways, roads, walkways and parking lots will become icy, slippery and hazardous. Poor weather conditions may contribute to transportation delays.

Please continue to monitor alerts and forecasts issued by Environment Canada. To report severe weather, send an email to ec.cpiq_tempetes-qspc_storms.ec@canada.ca or tweet reports using #meteoqc.
expires_epoch:1490613500